Time;durP1;ratioP1;P1;durP2;ratioP2;P2;SDS_P1;SDS_P2;PMS_P1;PMS_P2;Temp;Humidity;BMP_temperature;BMP_pressure;BME280_temperature;BME280_humidity;BME280_pressure;Samples;Min_cycle;Max_cycle;Signal;HPM_P1;HPM_P2
2022/04/05 00:09:51;;;;;;;33.97;16.63;;;-2.60;99.90;;;;;;19857036;29;20529;-52
2022/04/05 00:19:53;;;;;;;28.02;15.73;;;-2.50;99.90;;;;;;19823976;29;20077;-50
2022/04/05 00:29:56;;;;;;;34.83;18.30;;;-2.50;99.90;;;;;;19838453;29;20108;-49
2022/04/05 00:39:59;;;;;;;28.75;16.13;;;-2.40;99.90;;;;;;19841501;29;20065;-58
2022/04/05 00:50:03;;;;;;;31.55;15.15;;;-2.30;99.90;;;;;;19817837;29;20119;-50
2022/04/05 01:00:08;;;;;;;27.15;15.90;;;-2.20;99.90;;;;;;19839441;29;20112;-47
2022/04/05 01:10:11;;;;;;;27.58;15.50;;;-2.30;99.90;;;;;;19808548;29;20413;-49
2022/04/05 01:20:13;;;;;;;36.72;20.13;;;-2.40;99.90;;;;;;19808036;29;20079;-51
2022/04/05 01:30:17;;;;;;;34.03;18.02;;;-2.60;99.90;;;;;;19859256;29;20035;-47
2022/04/05 01:40:19;;;;;;;31.90;16.65;;;-2.70;99.90;;;;;;19806565;29;20104;-47
2022/04/05 01:50:24;;;;;;;31.38;17.48;;;-2.60;99.90;;;;;;19805874;29;20051;-48
2022/04/05 02:00:26;;;;;;;29.73;15.10;;;-2.60;99.90;;;;;;19820414;29;20071;-47
2022/04/05 02:10:30;;;;;;;28.63;16.38;;;-2.50;99.90;;;;;;19810642;29;20055;-48
2022/04/05 02:20:33;;;;;;;31.27;16.98;;;-2.40;99.90;;;;;;19847892;29;20050;-51
2022/04/05 02:30:41;;;;;;;35.28;18.38;;;-2.40;99.90;;;;;;19838709;29;20043;-50
2022/04/05 02:40:46;;;;;;;38.42;19.35;;;-2.30;99.90;;;;;;19810760;29;20035;-58
2022/04/05 02:50:52;;;;;;;30.83;17.27;;;-2.30;99.90;;;;;;19812881;29;20171;-47
2022/04/05 03:00:55;;;;;;;32.17;17.83;;;-2.30;99.90;;;;;;19808711;29;20078;-51
2022/04/05 03:10:58;;;;;;;30.13;16.88;;;-2.40;99.90;;;;;;19801409;29;20043;-47
2022/04/05 03:21:03;;;;;;;27.10;13.95;;;-2.40;99.90;;;;;;19854208;29;20456;-48
2022/04/05 03:31:05;;;;;;;34.63;19.42;;;-2.40;99.90;;;;;;19821898;29;20108;-48
2022/04/05 03:41:09;;;;;;;33.20;17.92;;;-2.30;99.90;;;;;;19870389;29;20118;-48
2022/04/05 03:51:13;;;;;;;38.53;20.33;;;-2.20;99.90;;;;;;19861049;29;20415;-47
2022/04/05 04:01:26;;;;;;;36.42;19.50;;;-1.90;99.90;;;;;;19812613;29;20508;-50
2022/04/05 04:11:29;;;;;;;33.08;18.27;;;-2.00;99.90;;;;;;19822602;29;20365;-51
2022/04/05 04:21:34;;;;;;;28.85;15.57;;;-2.20;99.90;;;;;;19832702;29;20047;-49
2022/04/05 04:31:36;;;;;;;29.17;16.85;;;-2.20;99.90;;;;;;19840422;29;20568;-47
2022/04/05 04:41:40;;;;;;;30.60;15.45;;;-2.20;99.90;;;;;;19811954;29;20508;-58
2022/04/05 04:51:42;;;;;;;25.30;14.30;;;-2.30;99.90;;;;;;19841909;29;20123;-47
2022/04/05 05:01:45;;;;;;;32.72;17.85;;;-2.30;99.90;;;;;;19854572;29;20099;-47
2022/04/05 05:11:47;;;;;;;27.88;15.35;;;-2.00;99.90;;;;;;19854772;29;20431;-46
2022/04/05 05:21:50;;;;;;;23.23;12.90;;;-1.70;99.90;;;;;;19853771;29;20576;-48
2022/04/05 05:31:52;;;;;;;26.02;14.77;;;-1.70;99.90;;;;;;19878623;29;20046;-46
2022/04/05 05:41:55;;;;;;;20.23;11.10;;;-1.60;99.90;;;;;;19811639;29;20134;-49
2022/04/05 05:51:57;;;;;;;18.27;10.27;;;-1.50;99.90;;;;;;19850312;29;20127;-47
2022/04/05 06:02:00;;;;;;;17.05;9.65;;;-1.50;99.90;;;;;;19849902;29;20058;-49
2022/04/05 06:12:03;;;;;;;18.23;11.02;;;-1.50;99.90;;;;;;19865436;29;20035;-46
2022/04/05 06:22:05;;;;;;;18.20;9.80;;;-1.00;99.90;;;;;;19841228;29;20043;-50
2022/04/05 06:32:08;;;;;;;18.63;9.57;;;-0.70;99.90;;;;;;19841476;29;20050;-58
2022/04/05 06:42:11;;;;;;;16.52;9.68;;;-0.30;99.90;;;;;;19878400;29;20062;-50
2022/04/05 06:52:14;;;;;;;18.48;10.93;;;0.30;99.90;;;;;;19811838;29;20058;-51
2022/04/05 07:02:16;;;;;;;18.10;10.80;;;2.10;99.90;;;;;;19860122;29;20140;-57
2022/04/05 07:12:19;;;;;;;15.80;9.27;;;3.60;99.90;;;;;;19870291;29;20065;-57
2022/04/05 07:22:24;;;;;;;17.73;10.38;;;3.80;99.90;;;;;;19871743;29;20107;-57
2022/04/05 07:32:26;;;;;;;14.77;9.98;;;4.90;99.90;;;;;;19809322;29;20039;-51
2022/04/05 07:42:30;;;;;;;14.15;9.98;;;5.80;99.90;;;;;;19838920;29;20075;-54
2022/04/05 07:52:33;;;;;;;14.05;9.73;;;7.20;99.90;;;;;;19834847;29;20055;-54
2022/04/05 08:02:35;;;;;;;13.75;9.00;;;8.20;99.90;;;;;;19872224;29;20043;-54
2022/04/05 08:12:43;;;;;;;13.45;9.70;;;8.30;99.80;;;;;;19797528;29;20043;-54
2022/04/05 08:22:47;;;;;;;11.98;9.02;;;9.00;99.80;;;;;;19824035;29;20063;-54
2022/04/05 08:32:50;;;;;;;12.30;8.00;;;9.80;98.50;;;;;;19837035;29;20034;-54
2022/04/05 08:42:56;;;;;;;11.68;8.38;;;9.80;96.70;;;;;;19823725;29;20074;-55
2022/04/05 08:53:00;;;;;;;11.85;8.45;;;10.20;97.30;;;;;;19884278;29;20084;-58
2022/04/05 09:03:05;;;;;;;15.90;8.85;;;10.50;96.60;;;;;;19884396;29;20042;-50
2022/04/05 09:13:16;;;;;;;11.27;8.25;;;10.50;97.00;;;;;;19813530;29;20080;-58
2022/04/05 09:23:41;;;;;;;12.77;9.00;;;10.60;96.50;;;;;;19856937;29;20096;-51
2022/04/05 09:34:02;;;;;;;10.90;8.35;;;10.40;96.50;;;;;;19859585;29;20090;-52
2022/04/05 09:44:06;;;;;;;12.40;8.32;;;10.40;96.60;;;;;;19824639;29;20103;-54
2022/04/05 09:54:27;;;;;;;11.23;8.40;;;10.60;97.90;;;;;;19847038;29;20059;-53
2022/04/05 10:04:33;;;;;;;13.05;9.05;;;11.00;99.60;;;;;;19828377;29;20495;-58
2022/04/05 10:14:36;;;;;;;14.02;9.45;;;11.10;97.10;;;;;;19819405;29;20046;-58
2022/04/05 10:24:39;;;;;;;14.05;9.88;;;11.30;99.90;;;;;;19861797;29;20112;-58
2022/04/05 10:34:50;;;;;;;13.73;9.15;;;11.50;99.70;;;;;;19826394;29;20103;-52
2022/04/05 10:45:23;;;;;;;15.68;11.18;;;11.70;97.30;;;;;;19846697;29;20088;-51
2022/04/05 10:55:26;;;;;;;14.98;10.35;;;11.30;99.00;;;;;;19842384;29;20055;-58
2022/04/05 11:05:36;;;;;;;15.25;10.57;;;11.40;96.70;;;;;;19852345;29;20104;-53
2022/04/05 11:15:46;;;;;;;19.65;12.07;;;11.20;97.90;;;;;;19807589;29;20442;-54
2022/04/05 11:25:48;;;;;;;17.50;11.33;;;11.10;95.70;;;;;;19814866;29;20580;-57
2022/04/05 11:36:25;;;;;;;20.42;13.32;;;11.20;98.60;;;;;;19819317;29;20400;-54
2022/04/05 11:46:31;;;;;;;16.98;11.43;;;11.60;97.60;;;;;;19627826;30;20485;-52
2022/04/05 11:56:35;;;;;;;16.02;11.18;;;11.80;99.20;;;;;;19639317;30;20533;-54
2022/04/05 12:06:40;;;;;;;15.32;10.73;;;12.20;98.30;;;;;;19663307;30;20076;-56
2022/04/05 12:17:02;;;;;;;15.88;10.13;;;12.00;97.20;;;;;;19730706;29;20135;-54
2022/04/05 12:27:05;;;;;;;16.13;11.48;;;12.00;94.70;;;;;;19850216;29;20103;-56
2022/04/05 12:37:14;;;;;;;16.83;11.73;;;12.20;96.60;;;;;;19856161;29;20097;-56
2022/04/05 12:47:22;;;;;;;18.92;13.32;;;12.20;98.50;;;;;;19845489;29;20071;-58
2022/04/05 12:57:27;;;;;;;18.58;12.93;;;12.30;94.70;;;;;;19824821;29;20067;-58
2022/04/05 13:07:29;;;;;;;17.77;12.15;;;12.50;96.80;;;;;;19810689;29;20104;-58
2022/04/05 13:17:32;;;;;;;17.13;12.13;;;12.50;98.20;;;;;;19831155;29;20116;-58
2022/04/05 13:27:35;;;;;;;18.98;13.02;;;12.90;96.50;;;;;;19816928;29;20067;-58
2022/04/05 13:37:38;;;;;;;18.10;13.05;;;12.90;97.30;;;;;;19807258;29;20137;-58
2022/04/05 13:47:42;;;;;;;18.08;12.05;;;12.70;96.10;;;;;;19806536;29;20063;-58
2022/04/05 13:57:47;;;;;;;21.55;14.90;;;12.50;96.60;;;;;;19816220;29;20063;-58
2022/04/05 14:07:49;;;;;;;18.63;13.27;;;12.60;97.70;;;;;;19879874;29;20043;-59
2022/04/05 14:17:52;;;;;;;21.15;14.30;;;12.40;97.50;;;;;;19863743;29;20039;-59
2022/04/05 14:27:55;;;;;;;20.60;14.65;;;12.30;94.70;;;;;;19870649;29;20151;-59
2022/04/05 14:37:58;;;;;;;20.50;14.32;;;12.20;97.00;;;;;;19878439;29;20059;-58
2022/04/05 14:48:01;;;;;;;19.48;13.68;;;12.20;97.40;;;;;;19822774;29;20112;-58
2022/04/05 14:58:04;;;;;;;23.83;13.77;;;11.80;97.00;;;;;;19835560;29;20155;-54
2022/04/05 15:08:07;;;;;;;20.75;14.68;;;11.80;97.00;;;;;;19801018;29;20116;-59
2022/04/05 15:18:10;;;;;;;19.60;13.65;;;11.50;97.30;;;;;;19847391;29;20042;-59
2022/04/05 15:28:12;;;;;;;20.95;14.02;;;10.80;96.30;;;;;;19872972;29;20407;-53
2022/04/05 15:38:14;;;;;;;22.27;15.15;;;10.10;97.90;;;;;;19806645;29;20073;-49
2022/04/05 15:48:18;;;;;;;26.38;15.90;;;9.40;98.60;;;;;;19857380;29;20468;-48
2022/04/05 15:58:21;;;;;;;25.00;16.55;;;8.70;99.90;;;;;;19823676;29;20074;-59
2022/04/05 16:08:23;;;;;;;25.63;17.02;;;8.30;99.90;;;;;;19790346;29;20079;-50
2022/04/05 16:18:25;;;;;;;33.92;17.88;;;7.80;99.90;;;;;;19811848;29;20100;-51
2022/04/05 16:28:30;;;;;;;29.52;17.27;;;7.10;99.90;;;;;;19797087;29;20070;-52
2022/04/05 16:38:33;;;;;;;30.38;18.42;;;6.40;99.90;;;;;;19796452;29;20047;-49
2022/04/05 16:48:37;;;;;;;32.20;18.75;;;5.90;99.90;;;;;;19809249;29;20050;-58
2022/04/05 16:58:41;;;;;;;35.53;18.90;;;5.40;99.90;;;;;;19849080;29;20066;-54
2022/04/05 17:08:44;;;;;;;35.05;19.52;;;4.90;99.90;;;;;;19884069;29;20050;-48
2022/04/05 17:18:47;;;;;;;38.42;23.13;;;4.50;99.90;;;;;;19849937;29;20107;-48
2022/04/05 17:28:51;;;;;;;41.25;23.17;;;4.00;99.90;;;;;;19842697;29;20067;-50
2022/04/05 17:38:53;;;;;;;45.65;24.38;;;3.70;99.90;;;;;;19819315;29;20410;-49
2022/04/05 17:48:57;;;;;;;42.92;23.63;;;3.40;99.90;;;;;;19928660;29;20151;-49
2022/04/05 17:59:00;;;;;;;42.50;24.65;;;3.10;99.90;;;;;;19737476;30;20083;-50
2022/04/05 18:09:03;;;;;;;51.85;30.27;;;2.80;99.90;;;;;;19707079;30;20083;-50
2022/04/05 18:19:06;;;;;;;47.17;25.75;;;2.50;99.90;;;;;;19721956;30;20133;-53
2022/04/05 18:29:09;;;;;;;52.08;30.20;;;2.40;99.90;;;;;;19706376;30;20079;-57
2022/04/05 18:39:12;;;;;;;52.00;28.00;;;2.20;99.90;;;;;;19749003;29;20563;-57
2022/04/05 18:49:16;;;;;;;55.47;29.67;;;2.10;99.90;;;;;;19837309;29;20084;-55
2022/04/05 18:59:18;;;;;;;57.60;31.08;;;1.90;99.90;;;;;;19800978;29;20087;-55
2022/04/05 19:09:22;;;;;;;57.97;30.23;;;1.80;99.90;;;;;;19835228;29;20100;-49
2022/04/05 19:19:24;;;;;;;51.85;27.75;;;1.70;99.90;;;;;;19856447;29;20043;-54
2022/04/05 19:29:27;;;;;;;66.70;33.97;;;1.70;99.90;;;;;;19798638;29;20075;-48
2022/04/05 19:39:30;;;;;;;67.05;35.35;;;1.60;99.90;;;;;;19840818;29;20399;-50
2022/04/05 19:49:35;;;;;;;65.55;33.67;;;1.60;99.90;;;;;;19799432;29;20068;-53
2022/04/05 19:59:38;;;;;;;67.32;35.35;;;1.50;99.90;;;;;;19847333;29;20087;-48
2022/04/05 20:09:42;;;;;;;67.20;35.85;;;1.40;99.90;;;;;;19805090;29;20099;-48
2022/04/05 20:19:44;;;;;;;75.35;37.95;;;1.40;99.90;;;;;;19827641;29;20051;-49
2022/04/05 20:29:47;;;;;;;85.15;40.10;;;1.30;99.90;;;;;;19836441;29;20070;-54
2022/04/05 20:39:49;;;;;;;73.20;37.75;;;1.30;99.90;;;;;;19839177;29;20450;-51
2022/04/05 20:49:54;;;;;;;76.07;37.17;;;1.30;99.90;;;;;;19825774;29;20171;-51
2022/04/05 20:59:57;;;;;;;74.60;38.40;;;1.20;99.90;;;;;;19822519;29;20051;-50
2022/04/05 21:10:00;;;;;;;82.43;37.63;;;1.30;99.90;;;;;;19872017;29;20043;-48
2022/04/05 21:20:04;;;;;;;80.60;39.67;;;1.20;99.90;;;;;;19870332;29;20126;-54
2022/04/05 21:30:08;;;;;;;74.50;36.03;;;1.10;99.90;;;;;;19827322;29;20066;-52
2022/04/05 21:40:11;;;;;;;68.40;33.40;;;1.10;99.90;;;;;;19821314;29;20136;-51
2022/04/05 21:50:14;;;;;;;83.68;42.20;;;1.20;99.90;;;;;;19809567;29;20054;-48
2022/04/05 22:00:18;;;;;;;90.25;41.58;;;1.20;99.90;;;;;;19864509;29;20058;-51
2022/04/05 22:10:21;;;;;;;79.40;39.45;;;1.20;99.90;;;;;;19868159;29;20066;-49
2022/04/05 22:20:24;;;;;;;84.93;42.33;;;1.10;99.90;;;;;;19830143;29;20104;-52
2022/04/05 22:30:27;;;;;;;80.43;39.88;;;1.10;99.90;;;;;;19807013;29;20070;-50
2022/04/05 22:40:29;;;;;;;74.72;37.00;;;0.90;99.90;;;;;;19832049;29;20054;-56
2022/04/05 22:50:33;;;;;;;102.82;46.85;;;0.90;99.90;;;;;;19862017;29;20559;-52
2022/04/05 23:00:36;;;;;;;100.25;45.60;;;0.90;99.90;;;;;;19844813;29;20055;-52
2022/04/05 23:10:38;;;;;;;87.35;41.42;;;0.90;99.90;;;;;;19846243;29;20071;-49
2022/04/05 23:20:42;;;;;;;85.35;41.00;;;0.80;99.90;;;;;;19870821;29;20482;-51
2022/04/05 23:30:44;;;;;;;92.55;43.28;;;0.90;99.90;;;;;;19848947;29;20208;-52
2022/04/05 23:40:47;;;;;;;81.63;38.97;;;0.90;99.90;;;;;;19826916;29;20051;-51
2022/04/05 23:50:50;;;;;;;107.72;47.38;;;0.80;99.90;;;;;;19817156;29;20127;-52
